Terminal Aerodrome Forecast
Issued by NWS Duluth, MN

Home | Current Version | Previous Version | Text Only | Print | Product List | Glossary On
Versions: 1 2 3 4 5 6 7 8 9 10 11 12 13 14 15
145
FTUS43 KDLH 211138
TAFINL
TAF
KINL 211138Z 2112/2212 30005KT P6SM FEW250
     FM212100 23005KT P6SM SCT050
     FM220200 VRB03KT P6SM SKC=

USA.gov is the U.S. government's official web portal to all federal, state and local government web resources and services.